createdAt,value
2023-04-22T00:02:16.894Z,16.70
2023-04-22T00:04:46.376Z,16.70
2023-04-22T00:07:14.524Z,16.60
2023-04-22T00:09:41.748Z,16.60
2023-04-22T00:12:09.064Z,16.60
2023-04-22T00:14:35.803Z,16.60
2023-04-22T00:17:02.533Z,16.60
2023-04-22T00:19:29.358Z,16.60
2023-04-22T00:21:56.077Z,16.60
2023-04-22T00:24:22.710Z,16.60
2023-04-22T00:26:49.418Z,16.60
2023-04-22T00:29:16.057Z,16.60
2023-04-22T00:31:42.821Z,16.60
2023-04-22T00:34:09.508Z,16.60
2023-04-22T00:36:36.774Z,16.50
2023-04-22T00:39:03.552Z,16.50
2023-04-22T00:41:31.057Z,16.50
2023-04-22T00:43:59.548Z,16.50
2023-04-22T00:46:27.273Z,16.50
2023-04-22T00:48:54.413Z,16.50
2023-04-22T00:51:21.040Z,16.50
2023-04-22T00:53:47.730Z,16.50
2023-04-22T00:56:14.464Z,16.50
2023-04-22T00:58:41.352Z,16.50
2023-04-22T01:01:08.016Z,16.50
2023-04-22T01:03:38.412Z,16.50
2023-04-22T01:06:05.632Z,16.50
2023-04-22T01:08:33.042Z,16.50
2023-04-22T01:10:59.985Z,16.40
2023-04-22T01:13:26.663Z,16.50
2023-04-22T01:15:53.782Z,16.40
2023-04-22T01:18:20.541Z,16.40
2023-04-22T01:20:47.141Z,16.40
2023-04-22T01:23:21.308Z,16.40
2023-04-22T01:25:49.219Z,16.50
2023-04-22T01:28:17.223Z,16.40
2023-04-22T01:30:44.122Z,16.40
2023-04-22T01:33:12.198Z,16.40
2023-04-22T01:35:39.905Z,16.40
2023-04-22T01:38:08.398Z,16.40
2023-04-22T01:40:35.208Z,16.40
2023-04-22T01:43:02.784Z,16.40
2023-04-22T01:45:29.821Z,16.40
2023-04-22T01:47:56.743Z,16.40
2023-04-22T01:50:23.887Z,16.40
2023-04-22T01:52:50.833Z,16.30
2023-04-22T01:55:17.556Z,16.40
2023-04-22T01:57:44.281Z,16.30
2023-04-22T02:00:11.957Z,16.30
2023-04-22T02:02:44.964Z,16.30
2023-04-22T02:05:11.713Z,16.30
2023-04-22T02:07:38.510Z,16.30
2023-04-22T02:10:06.103Z,16.30
2023-04-22T02:12:32.720Z,16.30
2023-04-22T02:14:59.394Z,16.30
2023-04-22T02:17:27.037Z,16.30
2023-04-22T02:19:53.687Z,16.30
2023-04-22T02:22:21.608Z,16.20
2023-04-22T02:24:51.059Z,16.20
2023-04-22T02:27:17.661Z,16.20
2023-04-22T02:29:46.204Z,16.20
2023-04-22T02:32:13.160Z,16.20
2023-04-22T02:34:39.943Z,16.20
2023-04-22T02:37:06.626Z,16.10
2023-04-22T02:39:33.540Z,16.10
2023-04-22T02:42:01.324Z,16.20
2023-04-22T02:44:28.250Z,16.10
2023-04-22T02:46:54.922Z,16.10
2023-04-22T02:49:21.646Z,16.10
2023-04-22T02:51:48.589Z,16.10
2023-04-22T02:54:15.443Z,16.10
2023-04-22T02:56:42.102Z,16.20
2023-04-22T02:59:08.727Z,16.10
2023-04-22T03:01:35.437Z,16.10
2023-04-22T03:04:04.499Z,16.10
2023-04-22T03:06:31.699Z,16.10
2023-04-22T03:08:58.653Z,16.00
2023-04-22T03:11:25.606Z,16.00
2023-04-22T03:13:52.268Z,16.00
2023-04-22T03:16:23.266Z,16.00
2023-04-22T03:18:51.524Z,16.00
2023-04-22T03:21:18.164Z,16.00
2023-04-22T03:23:44.874Z,16.00
2023-04-22T03:26:12.035Z,16.00
2023-04-22T03:28:40.097Z,16.00
2023-04-22T03:31:07.448Z,16.00
2023-04-22T03:33:34.691Z,16.00
2023-04-22T03:36:08.623Z,15.90
2023-04-22T03:38:35.413Z,16.00
2023-04-22T03:41:02.321Z,16.00
2023-04-22T03:43:37.127Z,16.00
2023-04-22T03:46:09.153Z,16.00
2023-04-22T03:48:39.959Z,16.00
2023-04-22T03:51:15.534Z,15.90
2023-04-22T03:53:42.179Z,15.90
2023-04-22T03:56:13.893Z,16.00
2023-04-22T03:58:44.740Z,15.90
2023-04-22T04:01:11.497Z,15.90
2023-04-22T04:03:40.125Z,15.90
2023-04-22T04:06:09.386Z,15.90
2023-04-22T04:08:36.685Z,15.90
2023-04-22T04:11:03.403Z,15.90
2023-04-22T04:13:32.218Z,15.90
2023-04-22T04:16:16.519Z,15.90
2023-04-22T04:18:45.549Z,15.90
2023-04-22T04:21:13.150Z,15.90
2023-04-22T04:23:47.374Z,15.90
2023-04-22T04:26:15.048Z,15.80
2023-04-22T04:28:49.208Z,15.80
2023-04-22T04:31:17.644Z,15.80
2023-04-22T04:33:44.532Z,15.80
2023-04-22T04:36:11.313Z,15.80
2023-04-22T04:38:38.962Z,15.90
2023-04-22T04:41:05.620Z,15.80
2023-04-22T04:43:33.173Z,15.90
2023-04-22T04:46:09.751Z,15.90
2023-04-22T04:48:37.850Z,15.80
2023-04-22T04:51:08.655Z,15.90
2023-04-22T04:53:44.382Z,15.80
2023-04-22T04:56:11.548Z,15.80
2023-04-22T04:58:38.189Z,15.80
2023-04-22T05:01:16.966Z,15.80
2023-04-22T05:03:45.562Z,15.80
2023-04-22T05:06:14.885Z,15.90
2023-04-22T05:08:46.569Z,15.80
2023-04-22T05:11:13.485Z,15.90
2023-04-22T05:13:41.818Z,15.90
2023-04-22T05:16:13.303Z,15.90
2023-04-22T05:18:40.669Z,15.90
2023-04-22T05:21:09.522Z,15.90
2023-04-22T05:23:36.605Z,15.90
2023-04-22T05:26:05.903Z,15.90
2023-04-22T05:28:34.346Z,15.90
2023-04-22T05:31:00.970Z,15.80
2023-04-22T05:33:29.505Z,15.80
2023-04-22T05:35:56.514Z,15.90
2023-04-22T05:38:23.642Z,15.90
2023-04-22T05:40:50.640Z,15.90
2023-04-22T05:43:17.344Z,16.00
2023-04-22T05:45:49.677Z,16.00
2023-04-22T05:48:18.267Z,15.90
2023-04-22T05:50:55.958Z,15.90
2023-04-22T05:53:22.621Z,15.90
2023-04-22T05:55:49.297Z,15.90
2023-04-22T05:58:16.170Z,15.90
2023-04-22T06:00:50.764Z,15.90
2023-04-22T06:03:36.500Z,15.90
2023-04-22T06:06:03.540Z,15.90
2023-04-22T06:08:31.614Z,15.90
2023-04-22T06:10:58.309Z,15.90
2023-04-22T06:13:28.012Z,15.90
2023-04-22T06:15:54.823Z,15.90
2023-04-22T06:18:21.660Z,16.00
2023-04-22T06:20:48.825Z,16.00
2023-04-22T06:23:15.422Z,16.00
2023-04-22T06:25:42.048Z,15.90
2023-04-22T06:28:09.449Z,15.90
2023-04-22T06:30:36.852Z,15.90
2023-04-22T06:33:03.693Z,16.00
2023-04-22T06:35:31.000Z,16.00
2023-04-22T06:37:57.615Z,16.00
2023-04-22T06:40:30.082Z,16.10
2023-04-22T06:43:15.709Z,16.10
2023-04-22T06:46:02.294Z,16.20
2023-04-22T06:48:43.665Z,16.20
2023-04-22T06:51:18.261Z,16.10
2023-04-22T06:53:46.030Z,16.10
2023-04-22T06:56:15.920Z,16.00
2023-04-22T06:58:42.486Z,16.00
2023-04-22T07:01:09.233Z,16.10
2023-04-22T07:03:38.035Z,16.00
2023-04-22T07:06:09.277Z,16.00
2023-04-22T07:08:35.999Z,16.10
2023-04-22T07:11:02.717Z,16.20
2023-04-22T07:13:55.559Z,16.30
2023-04-22T07:16:22.329Z,16.40
2023-04-22T07:18:49.150Z,16.40
2023-04-22T07:21:15.748Z,16.30
2023-04-22T07:23:42.343Z,16.40
2023-04-22T07:26:08.972Z,16.40
2023-04-22T07:28:35.712Z,16.40
2023-04-22T07:31:02.767Z,16.40
2023-04-22T07:33:29.474Z,16.40
2023-04-22T07:35:56.118Z,16.50
2023-04-22T07:38:22.780Z,16.70
2023-04-22T07:40:49.424Z,16.60
2023-04-22T07:43:16.069Z,16.60
2023-04-22T07:45:42.693Z,16.60
2023-04-22T07:48:09.392Z,16.60
2023-04-22T07:50:38.612Z,16.70
2023-04-22T07:53:06.312Z,16.80
2023-04-22T07:55:33.126Z,16.80
2023-04-22T07:58:06.253Z,16.70
2023-04-22T08:00:36.154Z,16.70
2023-04-22T08:03:04.804Z,16.70
2023-04-22T08:05:31.636Z,16.80
2023-04-22T08:07:58.238Z,16.80
2023-04-22T08:10:24.968Z,16.80
2023-04-22T08:12:51.571Z,16.80
2023-04-22T08:15:18.584Z,16.90
2023-04-22T08:17:45.245Z,16.90
2023-04-22T08:20:12.346Z,16.90
2023-04-22T08:22:39.008Z,16.90
2023-04-22T08:25:06.728Z,16.90
2023-04-22T08:27:33.318Z,17.00
2023-04-22T08:29:59.942Z,17.00
2023-04-22T08:32:26.810Z,17.10
2023-04-22T08:34:54.350Z,17.10
2023-04-22T08:37:29.227Z,17.10
2023-04-22T08:39:55.792Z,17.20
2023-04-22T08:42:22.835Z,17.20
2023-04-22T08:44:49.818Z,17.20
2023-04-22T08:47:16.948Z,17.20
2023-04-22T08:49:44.053Z,17.30
2023-04-22T08:52:12.736Z,17.30
2023-04-22T08:54:39.393Z,17.30
2023-04-22T08:57:07.666Z,17.40
2023-04-22T08:59:36.036Z,17.40
2023-04-22T09:02:04.568Z,17.50
2023-04-22T09:04:31.849Z,17.40
2023-04-22T09:07:01.628Z,17.40
2023-04-22T09:09:30.656Z,17.50
2023-04-22T09:11:58.335Z,17.50
2023-04-22T09:14:26.320Z,17.50
2023-04-22T09:16:53.092Z,17.50
2023-04-22T09:19:24.086Z,17.60
2023-04-22T09:21:52.132Z,17.70
2023-04-22T09:24:20.883Z,17.70
2023-04-22T09:26:48.607Z,17.80
2023-04-22T09:29:16.252Z,17.90
2023-04-22T09:31:50.598Z,18.00
2023-04-22T09:34:17.230Z,18.10
2023-04-22T09:36:46.558Z,18.30
2023-04-22T09:39:13.227Z,18.50
2023-04-22T09:41:40.921Z,18.50
2023-04-22T09:44:15.236Z,18.40
2023-04-22T09:46:43.736Z,18.70
2023-04-22T09:49:11.834Z,18.60
2023-04-22T09:51:44.033Z,18.60
2023-04-22T09:54:11.431Z,18.70
2023-04-22T09:56:53.739Z,18.90
2023-04-22T09:59:30.400Z,18.90
2023-04-22T10:02:03.915Z,18.70
2023-04-22T10:04:31.344Z,18.70
2023-04-22T10:06:58.356Z,18.60
2023-04-22T10:09:25.552Z,18.90
2023-04-22T10:11:54.146Z,19.00
2023-04-22T10:14:24.437Z,19.10
2023-04-22T10:16:56.953Z,19.30
2023-04-22T10:19:25.491Z,19.30
2023-04-22T10:21:58.530Z,19.30
2023-04-22T10:24:34.051Z,19.00
2023-04-22T10:27:08.294Z,19.20
2023-04-22T10:29:40.722Z,19.10
2023-04-22T10:32:11.061Z,19.10
2023-04-22T10:34:39.013Z,19.50
2023-04-22T10:37:11.707Z,19.80
2023-04-22T10:39:40.806Z,19.70
2023-04-22T10:42:10.601Z,19.60
2023-04-22T10:45:01.670Z,19.50
2023-04-22T10:47:37.173Z,20.30
2023-04-22T10:50:24.755Z,20.20
2023-04-22T10:52:56.185Z,20.50
2023-04-22T10:55:23.746Z,20.60
2023-04-22T10:57:51.786Z,20.60
2023-04-22T11:03:11.685Z,20.50
2023-04-22T11:05:39.868Z,20.10
2023-04-22T11:08:20.921Z,20.40
2023-04-22T11:10:49.904Z,20.20
2023-04-22T11:13:19.346Z,20.40
2023-04-22T11:15:48.856Z,20.30
2023-04-22T11:18:25.044Z,19.90
2023-04-22T11:20:53.564Z,20.70
2023-04-22T11:23:27.950Z,20.50
2023-04-22T11:26:03.627Z,21.00
2023-04-22T11:28:31.007Z,20.70
2023-04-22T11:31:10.315Z,20.60
2023-04-22T11:33:39.002Z,20.70
2023-04-22T11:36:10.020Z,21.00
2023-04-22T11:38:36.617Z,20.80
2023-04-22T11:41:04.922Z,20.80
2023-04-22T11:43:31.663Z,21.30
2023-04-22T11:45:58.474Z,21.60
2023-04-22T11:48:25.207Z,21.20
2023-04-22T11:51:07.727Z,20.60
2023-04-22T11:53:34.372Z,20.80
2023-04-22T11:56:03.915Z,20.80
2023-04-22T11:58:31.420Z,20.40
2023-04-22T12:00:59.203Z,20.20
2023-04-22T12:03:28.518Z,19.90
2023-04-22T12:06:03.752Z,19.90
2023-04-22T12:08:43.564Z,19.70
2023-04-22T12:11:11.573Z,20.00
2023-04-22T12:13:38.161Z,19.90
2023-04-22T12:16:12.717Z,19.80
2023-04-22T12:18:41.274Z,19.80
2023-04-22T12:21:08.506Z,19.70
2023-04-22T12:23:45.794Z,19.60
2023-04-22T12:26:13.592Z,19.60
2023-04-22T12:28:41.216Z,20.40
2023-04-22T12:31:08.428Z,21.10
2023-04-22T12:33:36.351Z,21.50
2023-04-22T12:36:03.973Z,21.80
2023-04-22T12:38:30.569Z,22.20
2023-04-22T12:40:58.608Z,22.50
2023-04-22T12:43:25.725Z,22.00
2023-04-22T12:45:52.482Z,21.60
2023-04-22T12:48:19.256Z,21.70
2023-04-22T12:50:46.349Z,21.60
2023-04-22T12:53:13.024Z,21.80
2023-04-22T12:55:40.917Z,22.00
2023-04-22T12:58:07.634Z,22.00
2023-04-22T13:00:34.590Z,22.20
2023-04-22T13:03:01.444Z,22.10
2023-04-22T13:05:28.234Z,21.70
2023-04-22T13:10:26.016Z,21.50
2023-04-22T13:12:53.138Z,21.50
2023-04-22T13:15:20.227Z,21.50
2023-04-22T13:17:49.069Z,21.40
2023-04-22T13:20:16.961Z,21.40
2023-04-22T13:22:43.586Z,21.60
2023-04-22T13:25:10.911Z,21.90
2023-04-22T13:27:37.737Z,21.70
2023-04-22T13:30:07.292Z,21.40
2023-04-22T13:32:34.214Z,21.60
2023-04-22T13:35:02.866Z,21.50
2023-04-22T13:37:29.847Z,21.60
2023-04-22T13:39:56.506Z,21.60
2023-04-22T13:42:23.175Z,21.50
2023-04-22T13:44:49.846Z,21.30
2023-04-22T13:47:17.119Z,21.20
2023-04-22T13:49:43.783Z,20.90
2023-04-22T13:52:10.379Z,21.20
2023-04-22T13:54:36.990Z,21.20
2023-04-22T13:57:03.863Z,21.50
2023-04-22T13:59:31.404Z,21.40
2023-04-22T14:01:58.078Z,21.40
2023-04-22T14:04:24.719Z,21.50
2023-04-22T14:06:52.468Z,21.10
2023-04-22T14:09:19.090Z,20.80
2023-04-22T14:11:45.672Z,20.70
2023-04-22T14:14:12.349Z,20.90
2023-04-22T14:16:38.963Z,21.20
2023-04-22T14:19:06.065Z,21.60
2023-04-22T14:21:32.718Z,21.60
2023-04-22T14:23:59.348Z,21.70
2023-04-22T14:26:29.062Z,21.70
2023-04-22T14:28:55.827Z,21.50
2023-04-22T14:31:24.113Z,21.40
2023-04-22T14:33:51.224Z,21.20
2023-04-22T14:36:18.517Z,20.90
2023-04-22T14:38:45.424Z,20.80
2023-04-22T14:41:12.336Z,20.90
2023-04-22T14:43:39.154Z,21.20
2023-04-22T14:46:05.834Z,21.30
2023-04-22T14:48:35.209Z,21.50
2023-04-22T14:51:02.266Z,21.60
2023-04-22T14:53:28.938Z,21.80
2023-04-22T14:55:56.500Z,21.50
2023-04-22T14:58:23.730Z,21.60
2023-04-22T15:00:50.646Z,21.60
2023-04-22T15:03:17.616Z,21.40
2023-04-22T15:05:45.431Z,21.60
2023-04-22T15:08:12.023Z,21.50
2023-04-22T15:10:38.657Z,21.60
2023-04-22T15:13:05.244Z,21.40
2023-04-22T15:15:31.934Z,21.10
2023-04-22T15:17:58.685Z,20.80
2023-04-22T15:20:25.493Z,21.10
2023-04-22T15:22:52.278Z,20.90
2023-04-22T15:25:18.972Z,20.80
2023-04-22T15:27:45.980Z,20.70
2023-04-22T15:30:12.858Z,21.10
2023-04-22T15:32:39.485Z,21.00
2023-04-22T15:35:07.629Z,21.00
2023-04-22T15:37:34.388Z,21.20
2023-04-22T15:40:01.119Z,21.20
2023-04-22T15:42:27.778Z,21.10
2023-04-22T15:44:54.412Z,21.10
2023-04-22T15:47:21.048Z,21.20
2023-04-22T15:49:49.372Z,21.20
2023-04-22T15:52:17.548Z,21.20
2023-04-22T15:54:44.321Z,21.00
2023-04-22T15:57:11.074Z,21.10
2023-04-22T15:59:37.915Z,21.10
2023-04-22T16:02:04.760Z,21.10
2023-04-22T16:04:31.573Z,21.10
2023-04-22T16:06:59.223Z,20.90
2023-04-22T16:09:26.098Z,20.80
2023-04-22T16:11:53.464Z,20.80
2023-04-22T16:14:20.542Z,20.80
2023-04-22T16:16:47.521Z,20.70
2023-04-22T16:19:14.301Z,20.80
2023-04-22T16:21:41.054Z,20.80
2023-04-22T16:24:07.698Z,20.80
2023-04-22T16:26:34.460Z,21.00
2023-04-22T16:29:01.795Z,21.00
2023-04-22T16:31:28.394Z,21.00
2023-04-22T16:33:54.972Z,21.20
2023-04-22T16:36:22.342Z,21.20
2023-04-22T16:38:48.945Z,21.00
2023-04-22T16:41:15.661Z,20.90
2023-04-22T16:43:42.332Z,20.90
2023-04-22T16:46:08.976Z,20.90
2023-04-22T16:48:35.823Z,20.90
2023-04-22T16:51:02.466Z,21.00
2023-04-22T16:53:29.720Z,21.00
2023-04-22T16:55:56.604Z,20.90
2023-04-22T16:58:23.271Z,21.00
2023-04-22T17:00:49.884Z,21.10
2023-04-22T17:03:16.735Z,21.10
2023-04-22T17:05:43.509Z,21.00
2023-04-22T17:08:10.153Z,21.00
2023-04-22T17:10:41.303Z,21.10
2023-04-22T17:13:08.213Z,21.10
2023-04-22T17:15:35.759Z,21.10
2023-04-22T17:18:02.781Z,21.00
2023-04-22T17:20:29.420Z,20.90
2023-04-22T17:22:56.006Z,20.90
2023-04-22T17:25:22.595Z,20.90
2023-04-22T17:27:54.608Z,20.80
2023-04-22T17:30:21.397Z,20.70
2023-04-22T17:32:50.493Z,20.80
2023-04-22T17:35:17.169Z,20.80
2023-04-22T17:37:43.815Z,20.80
2023-04-22T17:40:13.376Z,20.80
2023-04-22T17:42:45.667Z,20.80
2023-04-22T17:45:13.299Z,20.80
2023-04-22T17:47:40.077Z,20.90
2023-04-22T17:50:07.565Z,20.80
2023-04-22T17:52:34.372Z,20.80
2023-04-22T17:55:01.153Z,20.70
2023-04-22T17:57:28.370Z,20.70
2023-04-22T17:59:55.109Z,20.70
2023-04-22T18:02:22.186Z,20.60
2023-04-22T18:04:49.072Z,20.60
2023-04-22T18:07:15.774Z,20.50
2023-04-22T18:09:42.850Z,20.50
2023-04-22T18:12:10.189Z,20.40
2023-04-22T18:14:36.865Z,20.50
2023-04-22T18:17:03.562Z,20.40
2023-04-22T18:19:30.374Z,20.40
2023-04-22T18:22:00.180Z,20.40
2023-04-22T18:24:27.924Z,20.40
2023-04-22T18:26:54.646Z,20.30
2023-04-22T18:29:21.249Z,20.30
2023-04-22T18:31:48.004Z,20.30
2023-04-22T18:34:15.801Z,20.30
2023-04-22T18:36:42.522Z,20.30
2023-04-22T18:39:09.583Z,20.20
2023-04-22T18:41:38.483Z,20.20
2023-04-22T18:44:05.470Z,20.20
2023-04-22T18:46:32.256Z,20.20
2023-04-22T18:48:58.926Z,20.20
2023-04-22T18:51:25.659Z,20.20
2023-04-22T18:53:52.269Z,20.20
2023-04-22T18:56:18.963Z,20.10
2023-04-22T18:58:45.919Z,20.20
2023-04-22T19:01:12.655Z,20.10
2023-04-22T19:03:39.589Z,20.10
2023-04-22T19:06:06.798Z,20.10
2023-04-22T19:08:33.939Z,20.00
2023-04-22T19:11:00.934Z,20.00
2023-04-22T19:13:29.729Z,20.00
2023-04-22T19:15:56.912Z,20.00
2023-04-22T19:18:23.807Z,20.00
2023-04-22T19:20:50.488Z,20.00
2023-04-22T19:23:17.260Z,20.00
2023-04-22T19:25:44.214Z,20.00
2023-04-22T19:28:11.116Z,20.00
2023-04-22T19:30:37.742Z,20.00
2023-04-22T19:33:04.450Z,19.90
2023-04-22T19:35:31.356Z,19.90
2023-04-22T19:37:58.566Z,19.90
2023-04-22T19:40:25.247Z,19.90
2023-04-22T19:42:54.971Z,19.90
2023-04-22T19:45:21.593Z,19.90
2023-04-22T19:47:48.468Z,19.80
2023-04-22T19:50:16.472Z,19.90
2023-04-22T19:52:45.901Z,19.90
2023-04-22T19:55:13.103Z,19.90
2023-04-22T19:57:42.239Z,19.80
2023-04-22T20:00:11.059Z,19.90
2023-04-22T20:02:41.972Z,19.80
2023-04-22T20:05:09.328Z,19.80
2023-04-22T20:07:36.805Z,19.80
2023-04-22T20:10:05.512Z,19.80
2023-04-22T20:12:32.665Z,19.80
2023-04-22T20:15:02.572Z,19.80
2023-04-22T20:17:30.778Z,19.70
2023-04-22T20:19:57.831Z,19.70
2023-04-22T20:22:25.153Z,19.70
2023-04-22T20:25:04.128Z,19.70
2023-04-22T20:27:31.640Z,19.70
2023-04-22T20:29:59.850Z,19.60
2023-04-22T20:32:27.630Z,19.70
2023-04-22T20:34:56.212Z,19.70
2023-04-22T20:37:24.233Z,19.70
2023-04-22T20:39:52.286Z,19.70
2023-04-22T20:42:20.237Z,19.70
2023-04-22T20:44:47.085Z,19.70
2023-04-22T20:47:14.394Z,19.70
2023-04-22T20:49:42.042Z,19.60
2023-04-22T20:52:12.231Z,19.70
2023-04-22T20:54:39.616Z,19.70
2023-04-22T20:57:07.214Z,19.70
2023-04-22T20:59:34.749Z,19.70
2023-04-22T21:02:04.103Z,19.70
2023-04-22T21:04:32.304Z,19.70
2023-04-22T21:07:03.833Z,19.70
2023-04-22T21:09:32.725Z,19.70
2023-04-22T21:11:59.609Z,19.60
2023-04-22T21:14:26.849Z,19.60
2023-04-22T21:17:03.534Z,19.70
2023-04-22T21:19:33.697Z,19.60
2023-04-22T21:22:05.289Z,19.60
2023-04-22T21:24:33.004Z,19.60
2023-04-22T21:26:59.916Z,19.60
2023-04-22T21:29:26.912Z,19.70
2023-04-22T21:32:07.375Z,19.60
2023-04-22T21:34:35.907Z,19.60
2023-04-22T21:37:02.696Z,19.60
2023-04-22T21:39:29.794Z,19.60
2023-04-22T21:41:58.208Z,19.60
2023-04-22T21:44:24.921Z,19.60
2023-04-22T21:46:51.532Z,19.60
2023-04-22T21:49:20.323Z,19.50
2023-04-22T21:51:46.993Z,19.50
2023-04-22T21:54:13.574Z,19.60
2023-04-22T21:56:40.189Z,19.50
2023-04-22T21:59:06.779Z,19.50
2023-04-22T22:01:33.484Z,19.60
2023-04-22T22:04:01.006Z,19.50
2023-04-22T22:06:28.485Z,19.50
2023-04-22T22:08:55.463Z,19.50
2023-04-22T22:13:51.870Z,19.40
2023-04-22T22:16:18.956Z,19.40
2023-04-22T22:18:46.419Z,19.40
2023-04-22T22:21:13.027Z,19.40
2023-04-22T22:23:39.702Z,19.40
2023-04-22T22:26:08.093Z,19.40
2023-04-22T22:28:34.696Z,19.30
2023-04-22T22:31:02.436Z,19.30
2023-04-22T22:33:29.705Z,19.30
2023-04-22T22:35:56.961Z,19.30
2023-04-22T22:38:23.547Z,19.30
2023-04-22T22:40:50.730Z,19.30
2023-04-22T22:43:17.351Z,19.30
2023-04-22T22:45:44.209Z,19.30
2023-04-22T22:48:10.988Z,19.30
2023-04-22T22:50:37.753Z,19.30
2023-04-22T22:53:04.462Z,19.30
2023-04-22T22:55:38.578Z,19.30
2023-04-22T22:58:05.363Z,19.30
2023-04-22T23:00:31.946Z,19.30
2023-04-22T23:02:58.727Z,19.40
2023-04-22T23:05:25.539Z,19.40
2023-04-22T23:07:52.236Z,19.40
2023-04-22T23:10:18.909Z,19.40
2023-04-22T23:12:45.609Z,19.50
2023-04-22T23:15:12.204Z,19.40
2023-04-22T23:17:39.029Z,19.50
2023-04-22T23:20:09.200Z,19.50
2023-04-22T23:22:39.255Z,19.40
2023-04-22T23:25:07.100Z,19.40
2023-04-22T23:27:34.294Z,19.30
2023-04-22T23:30:01.179Z,19.30
2023-04-22T23:32:32.281Z,19.30
2023-04-22T23:35:00.583Z,19.20
2023-04-22T23:37:28.600Z,19.20
2023-04-22T23:39:55.586Z,19.10
2023-04-22T23:42:22.225Z,19.10
2023-04-22T23:44:48.841Z,19.10
2023-04-22T23:47:15.477Z,19.10
2023-04-22T23:49:42.096Z,19.10
2023-04-22T23:52:08.765Z,19.10
2023-04-22T23:54:35.738Z,19.00
2023-04-22T23:57:02.680Z,18.90
2023-04-22T23:59:29.584Z,18.90
